createdAt,value
2019-02-19T00:00:51.026Z,10.87
2019-02-19T00:03:20.707Z,10.00
2019-02-19T00:05:50.832Z,9.97
2019-02-19T00:08:20.047Z,10.40
2019-02-19T00:10:50.358Z,10.83
2019-02-19T00:13:21.391Z,9.10
2019-02-19T00:15:51.039Z,10.47
2019-02-19T00:18:21.144Z,10.33
2019-02-19T00:20:51.131Z,9.67
2019-02-19T00:23:20.946Z,9.83
2019-02-19T00:25:50.139Z,10.03
2019-02-19T00:28:19.574Z,9.90
2019-02-19T00:30:49.600Z,10.17
2019-02-19T00:33:19.267Z,10.13
2019-02-19T00:35:48.967Z,10.40
2019-02-19T00:38:18.814Z,11.07
2019-02-19T00:40:48.344Z,10.40
2019-02-19T00:43:17.910Z,10.67
2019-02-19T00:45:47.243Z,10.13
2019-02-19T00:48:16.880Z,11.27
2019-02-19T00:50:47.842Z,10.00
2019-02-19T00:53:17.649Z,10.53
2019-02-19T00:55:47.062Z,10.97
2019-02-19T00:58:16.272Z,10.30
2019-02-19T01:00:46.022Z,11.40
2019-02-19T01:03:16.007Z,11.00
2019-02-19T01:05:45.697Z,12.07
2019-02-19T01:08:16.397Z,12.27
2019-02-19T01:10:46.670Z,11.70
2019-02-19T01:13:15.850Z,12.17
2019-02-19T01:15:45.133Z,13.17
2019-02-19T01:18:14.570Z,12.93
2019-02-19T01:20:43.697Z,12.33
2019-02-19T01:23:13.170Z,12.90
2019-02-19T01:25:42.555Z,12.53
2019-02-19T01:28:13.178Z,12.83
2019-02-19T01:30:43.419Z,12.67
2019-02-19T01:33:13.026Z,12.83
2019-02-19T01:35:43.226Z,12.30
2019-02-19T01:38:12.654Z,12.33
2019-02-19T01:40:42.055Z,12.43
2019-02-19T01:43:17.193Z,11.47
2019-02-19T01:45:46.882Z,11.53
2019-02-19T01:48:16.040Z,11.03
2019-02-19T01:50:46.198Z,11.27
2019-02-19T01:53:15.526Z,10.80
2019-02-19T01:55:45.427Z,11.00
2019-02-19T01:58:14.820Z,11.80
2019-02-19T02:00:44.711Z,11.90
2019-02-19T02:03:15.430Z,12.10
2019-02-19T02:05:45.602Z,11.50
2019-02-19T02:08:15.087Z,11.07
2019-02-19T02:10:44.304Z,12.43
2019-02-19T02:13:14.282Z,11.37
2019-02-19T02:15:44.143Z,11.50
2019-02-19T02:18:13.679Z,11.37
2019-02-19T02:20:43.462Z,9.90
2019-02-19T02:23:13.529Z,11.53
2019-02-19T02:25:42.814Z,11.20
2019-02-19T02:28:12.164Z,12.07
2019-02-19T02:30:41.454Z,11.03
2019-02-19T02:33:10.870Z,10.90
2019-02-19T02:35:40.064Z,10.87
2019-02-19T02:38:09.343Z,11.23
2019-02-19T02:40:39.764Z,10.50
2019-02-19T02:43:10.104Z,11.40
2019-02-19T02:45:39.727Z,11.87
2019-02-19T02:48:09.107Z,10.90
2019-02-19T02:50:38.440Z,11.53
2019-02-19T02:53:08.231Z,11.63
2019-02-19T02:55:38.284Z,11.07
2019-02-19T02:58:09.712Z,11.63
2019-02-19T03:00:40.070Z,11.47
2019-02-19T03:03:09.635Z,12.00
2019-02-19T03:05:40.456Z,10.67
2019-02-19T03:08:10.875Z,10.17
2019-02-19T03:10:40.301Z,9.23
2019-02-19T03:13:10.401Z,11.27
2019-02-19T03:15:40.834Z,11.20
2019-02-19T03:18:10.440Z,11.10
2019-02-19T03:20:39.744Z,10.73
2019-02-19T03:23:09.794Z,10.63
2019-02-19T03:25:39.147Z,10.80
2019-02-19T03:28:08.473Z,10.77
2019-02-19T03:30:38.086Z,11.20
2019-02-19T03:33:07.363Z,11.03
2019-02-19T03:35:38.279Z,11.40
2019-02-19T03:38:07.761Z,12.57
2019-02-19T03:40:37.712Z,11.27
2019-02-19T03:43:07.114Z,10.47
2019-02-19T03:45:37.521Z,10.60
2019-02-19T03:48:07.014Z,10.23
2019-02-19T03:50:36.866Z,11.30
2019-02-19T03:53:08.178Z,11.07
2019-02-19T03:55:38.727Z,10.83
2019-02-19T03:58:08.769Z,10.37
2019-02-19T04:00:38.221Z,10.43
2019-02-19T04:03:07.582Z,9.73
2019-02-19T04:05:36.962Z,10.13
2019-02-19T04:08:06.228Z,8.93
2019-02-19T04:10:35.464Z,9.97
2019-02-19T04:13:05.565Z,10.10
2019-02-19T04:15:35.617Z,10.83
2019-02-19T04:18:04.926Z,11.20
2019-02-19T04:20:34.220Z,11.03
2019-02-19T04:23:03.534Z,10.03
2019-02-19T04:25:32.760Z,9.87
2019-02-19T04:28:03.831Z,11.00
2019-02-19T04:30:33.098Z,10.17
2019-02-19T04:33:02.619Z,10.07
2019-02-19T04:35:32.043Z,11.00
2019-02-19T04:38:02.137Z,11.33
2019-02-19T04:40:31.365Z,10.37
2019-02-19T04:43:00.641Z,10.50
2019-02-19T04:45:30.242Z,9.77
2019-02-19T04:48:00.327Z,10.10
2019-02-19T04:50:29.797Z,10.17
2019-02-19T04:53:00.396Z,9.70
2019-02-19T04:55:29.813Z,10.40
2019-02-19T04:57:59.009Z,9.93
2019-02-19T05:00:28.270Z,9.27
2019-02-19T05:02:57.940Z,9.77
2019-02-19T05:05:28.029Z,10.47
2019-02-19T05:07:57.449Z,9.80
2019-02-19T05:10:26.729Z,9.43
2019-02-19T05:12:56.623Z,9.53
2019-02-19T05:15:27.013Z,9.73
2019-02-19T05:17:56.128Z,9.63
2019-02-19T05:20:25.447Z,9.90
2019-02-19T05:22:54.709Z,10.07
2019-02-19T05:25:23.987Z,9.63
2019-02-19T05:27:53.197Z,10.20
2019-02-19T05:30:22.574Z,10.70
2019-02-19T05:32:53.255Z,10.00
2019-02-19T05:35:24.708Z,9.40
2019-02-19T05:37:54.087Z,9.90
2019-02-19T05:40:23.368Z,11.57
2019-02-19T05:42:52.553Z,9.40
2019-02-19T05:45:21.975Z,10.13
2019-02-19T05:47:51.488Z,9.77
2019-02-19T05:50:20.785Z,9.57
2019-02-19T05:52:51.467Z,10.17
2019-02-19T05:55:21.759Z,10.90
2019-02-19T05:57:50.965Z,10.47
2019-02-19T06:00:20.990Z,10.90
2019-02-19T06:02:50.597Z,11.73
2019-02-19T06:05:20.069Z,12.23
2019-02-19T06:07:49.242Z,10.50
2019-02-19T06:10:18.595Z,10.43
2019-02-19T06:12:48.539Z,11.93
2019-02-19T06:15:18.608Z,11.73
2019-02-19T06:17:47.982Z,10.90
2019-02-19T06:20:17.232Z,11.40
2019-02-19T06:22:46.582Z,11.83
2019-02-19T06:25:15.820Z,10.47
2019-02-19T06:27:44.979Z,11.50
2019-02-19T06:30:14.199Z,11.67
2019-02-19T06:32:43.575Z,11.77
2019-02-19T06:35:13.428Z,10.80
2019-02-19T06:37:43.590Z,12.03
2019-02-19T06:40:24.418Z,10.57
2019-02-19T06:42:55.175Z,11.50
2019-02-19T06:45:25.579Z,11.63
2019-02-19T06:47:54.963Z,11.13
2019-02-19T06:50:24.169Z,12.27
2019-02-19T06:52:53.523Z,11.37
2019-02-19T06:55:22.780Z,11.60
2019-02-19T06:57:52.154Z,12.13
2019-02-19T07:00:21.441Z,12.97
2019-02-19T07:02:52.456Z,12.30
2019-02-19T07:05:23.831Z,11.40
2019-02-19T07:07:53.028Z,10.80
2019-02-19T07:10:22.431Z,11.10
2019-02-19T07:12:51.739Z,11.20
2019-02-19T07:15:21.113Z,11.50
2019-02-19T07:17:50.225Z,12.53
2019-02-19T07:20:19.434Z,10.77
2019-02-19T07:22:50.135Z,11.47
2019-02-19T07:25:20.492Z,10.63
2019-02-19T07:27:49.937Z,11.43
2019-02-19T07:30:19.225Z,10.80
2019-02-19T07:32:48.499Z,10.27
2019-02-19T07:35:17.923Z,10.67
2019-02-19T07:37:47.182Z,10.70
2019-02-19T07:40:17.487Z,11.70
2019-02-19T07:42:47.451Z,10.53
2019-02-19T07:45:17.638Z,10.93
2019-02-19T07:47:46.892Z,10.63
2019-02-19T07:50:16.264Z,11.27
2019-02-19T07:52:45.558Z,10.67
2019-02-19T07:55:14.846Z,11.27
2019-02-19T07:57:44.137Z,10.67
2019-02-19T08:00:13.715Z,9.77
2019-02-19T08:02:44.438Z,9.80
2019-02-19T08:05:15.014Z,9.43
2019-02-19T08:07:44.335Z,9.37
2019-02-19T08:10:13.509Z,9.70
2019-02-19T08:12:42.831Z,9.57
2019-02-19T08:15:13.260Z,10.03
2019-02-19T08:17:42.660Z,9.93
2019-02-19T08:20:15.702Z,9.83
2019-02-19T08:22:44.770Z,8.70
2019-02-19T08:25:14.146Z,8.63
2019-02-19T08:27:43.433Z,8.60
2019-02-19T08:30:12.721Z,9.47
2019-02-19T08:32:42.058Z,9.30
2019-02-19T08:35:11.330Z,9.07
2019-02-19T08:37:40.661Z,7.43
2019-02-19T08:40:12.226Z,7.67
2019-02-19T08:42:42.817Z,8.30
2019-02-19T08:45:12.209Z,9.03
2019-02-19T08:47:42.910Z,8.47
2019-02-19T08:50:12.947Z,9.47
2019-02-19T08:52:42.644Z,9.47
2019-02-19T08:55:12.682Z,8.40
2019-02-19T08:57:42.762Z,8.70
2019-02-19T09:00:12.820Z,7.50
2019-02-19T09:02:42.138Z,7.23
2019-02-19T09:05:11.470Z,7.97
2019-02-19T09:07:40.849Z,8.87
2019-02-19T09:10:12.308Z,8.00
2019-02-19T09:12:41.733Z,10.73
2019-02-19T09:15:13.550Z,10.53
2019-02-19T09:17:51.284Z,12.30
2019-02-19T09:20:14.424Z,10.70
2019-02-19T09:22:43.683Z,13.60
2019-02-19T09:25:13.146Z,14.30
2019-02-19T09:27:43.436Z,9.80
2019-02-19T09:30:15.373Z,9.97
2019-02-19T09:32:45.797Z,9.57
2019-02-19T09:35:14.998Z,9.83
2019-02-19T09:37:44.875Z,9.40
2019-02-19T09:40:14.847Z,10.57
2019-02-19T09:42:44.786Z,10.20
2019-02-19T09:45:14.982Z,9.33
2019-02-19T09:47:45.443Z,9.97
2019-02-19T09:50:15.104Z,9.40
2019-02-19T09:52:44.963Z,10.87
2019-02-19T09:55:14.623Z,9.53
2019-02-19T09:57:44.551Z,10.43
2019-02-19T10:00:14.841Z,9.47
2019-02-19T10:02:44.470Z,8.00
2019-02-19T10:05:14.613Z,8.43
2019-02-19T10:07:45.513Z,9.17
2019-02-19T10:10:17.620Z,8.33
2019-02-19T10:12:47.563Z,8.40
2019-02-19T10:15:17.344Z,9.10
2019-02-19T10:17:47.257Z,8.27
2019-02-19T10:20:17.529Z,10.10
2019-02-19T10:22:47.061Z,9.70
2019-02-19T10:25:16.831Z,9.03
2019-02-19T10:27:46.014Z,8.87
2019-02-19T10:30:18.121Z,11.13
2019-02-19T10:32:48.055Z,10.23
2019-02-19T10:35:17.818Z,9.97
2019-02-19T10:37:51.853Z,10.37
2019-02-19T10:40:22.104Z,9.07
2019-02-19T10:42:51.602Z,9.30
2019-02-19T10:45:23.088Z,9.67
2019-02-19T10:47:53.285Z,9.53
2019-02-19T10:50:22.621Z,8.87
2019-02-19T10:52:52.637Z,8.90
2019-02-19T10:55:22.647Z,9.63
2019-02-19T10:57:52.019Z,10.03
2019-02-19T11:00:22.450Z,10.47
2019-02-19T11:02:51.719Z,9.83
2019-02-19T11:05:21.050Z,11.17
2019-02-19T11:07:50.313Z,10.63
2019-02-19T11:10:19.611Z,9.43
2019-02-19T11:12:50.281Z,9.47
2019-02-19T11:15:19.669Z,9.70
2019-02-19T11:17:48.849Z,9.50
2019-02-19T11:20:20.587Z,10.67
2019-02-19T11:22:50.132Z,10.53
2019-02-19T11:25:19.522Z,10.73
2019-02-19T11:27:49.666Z,10.63
2019-02-19T11:30:21.636Z,10.90
2019-02-19T11:32:51.406Z,9.03
2019-02-19T11:35:20.614Z,10.30
2019-02-19T11:37:50.221Z,10.27
2019-02-19T11:40:19.868Z,10.23
2019-02-19T11:42:49.361Z,10.40
2019-02-19T11:45:18.995Z,9.10
2019-02-19T11:47:50.217Z,9.90
2019-02-19T11:50:20.643Z,9.27
2019-02-19T11:52:50.234Z,9.73
2019-02-19T11:55:19.669Z,10.47
2019-02-19T11:57:49.902Z,9.13
2019-02-19T12:00:20.357Z,9.50
2019-02-19T12:02:49.669Z,9.90
2019-02-19T12:05:20.487Z,10.00
2019-02-19T12:07:50.907Z,9.90
2019-02-19T12:10:20.227Z,10.23
2019-02-19T12:12:50.483Z,10.17
2019-02-19T12:15:19.939Z,10.47
2019-02-19T12:17:49.300Z,10.13
2019-02-19T12:20:18.667Z,11.90
2019-02-19T12:22:47.965Z,10.90
2019-02-19T12:25:17.707Z,14.00
2019-02-19T12:27:47.921Z,11.77
2019-02-19T12:30:20.591Z,8.67
2019-02-19T12:32:49.983Z,8.53
2019-02-19T12:35:19.334Z,9.70
2019-02-19T12:37:48.783Z,9.37
2019-02-19T12:40:17.986Z,8.33
2019-02-19T12:42:47.922Z,8.97
2019-02-19T12:45:18.005Z,7.90
2019-02-19T12:47:47.411Z,7.07
2019-02-19T12:50:17.923Z,9.80
2019-02-19T12:52:47.232Z,8.47
2019-02-19T12:55:16.459Z,7.53
2019-02-19T12:57:45.844Z,7.27
2019-02-19T13:00:17.710Z,5.70
2019-02-19T13:02:47.791Z,7.30
2019-02-19T13:05:17.019Z,7.47
2019-02-19T13:07:47.080Z,7.80
2019-02-19T13:10:16.865Z,7.33
2019-02-19T13:12:46.577Z,7.50
2019-02-19T13:15:21.611Z,6.65
2019-02-19T13:17:51.033Z,5.60
2019-02-19T13:20:21.236Z,4.33
2019-02-19T13:22:50.719Z,4.37
2019-02-19T13:25:20.009Z,4.37
2019-02-19T13:27:49.117Z,4.03
2019-02-19T13:30:19.854Z,3.83
2019-02-19T13:32:50.433Z,2.80
2019-02-19T13:35:21.096Z,2.10
2019-02-19T13:37:50.304Z,1.80
2019-02-19T13:40:19.617Z,1.83
2019-02-19T13:42:48.992Z,1.87
2019-02-19T13:45:18.177Z,1.87
2019-02-19T13:47:47.613Z,2.23
2019-02-19T13:50:25.032Z,2.20
2019-02-19T13:52:58.165Z,2.40
2019-02-19T13:55:29.813Z,2.60
2019-02-19T13:57:59.805Z,3.27
2019-02-19T14:00:30.501Z,2.67
2019-02-19T14:03:01.053Z,3.20
2019-02-19T14:05:30.200Z,2.87
2019-02-19T14:07:59.571Z,2.93
2019-02-19T14:10:29.877Z,3.13
2019-02-19T14:12:59.247Z,2.90
2019-02-19T14:15:29.833Z,3.20
2019-02-19T14:18:00.455Z,3.13
2019-02-19T14:20:40.556Z,3.10
2019-02-19T14:23:15.572Z,3.50
2019-02-19T14:25:56.425Z,3.70
2019-02-19T14:28:43.117Z,4.53
2019-02-19T14:31:28.913Z,4.03
2019-02-19T14:34:11.463Z,3.20
2019-02-19T14:36:42.888Z,2.87
2019-02-19T14:39:31.061Z,3.30
2019-02-19T14:42:02.491Z,3.83
2019-02-19T14:44:49.303Z,3.77
2019-02-19T14:47:31.712Z,2.77
2019-02-19T14:50:21.005Z,3.47
2019-02-19T14:53:04.229Z,10.43
2019-02-19T14:55:50.888Z,4.30
2019-02-19T14:58:21.535Z,3.30
2019-02-19T15:00:58.793Z,3.00
2019-02-19T15:03:31.551Z,3.27
2019-02-19T15:06:03.169Z,2.93
2019-02-19T15:08:49.999Z,3.40
2019-02-19T15:11:36.797Z,2.43
2019-02-19T15:14:16.360Z,2.50
2019-02-19T15:16:56.387Z,3.00
2019-02-19T15:19:42.169Z,3.07
2019-02-19T15:22:25.482Z,2.50
2019-02-19T15:24:57.140Z,3.10
2019-02-19T15:27:30.258Z,2.77
2019-02-19T15:30:04.061Z,2.10
2019-02-19T15:32:41.612Z,1.83
2019-02-19T15:35:28.383Z,1.87
2019-02-19T15:38:01.261Z,1.93
2019-02-19T15:40:47.183Z,1.87
2019-02-19T15:43:30.297Z,1.73
2019-02-19T15:46:00.754Z,1.40
2019-02-19T15:48:42.836Z,1.47
2019-02-19T15:51:22.519Z,1.67
2019-02-19T15:54:00.312Z,1.90
2019-02-19T15:56:47.136Z,1.70
2019-02-19T15:59:17.801Z,1.23
2019-02-19T16:01:52.682Z,1.63
2019-02-19T16:04:23.306Z,1.67
2019-02-19T16:07:01.905Z,1.60
2019-02-19T16:09:40.582Z,1.70
2019-02-19T16:12:17.871Z,1.73
2019-02-19T16:14:48.563Z,2.50
2019-02-19T16:17:25.023Z,1.90
2019-02-19T16:19:57.219Z,2.13
2019-02-19T16:22:40.047Z,1.87
2019-02-19T16:25:13.770Z,1.97
2019-02-19T16:27:45.273Z,2.00
2019-02-19T16:30:27.675Z,2.60
2019-02-19T16:33:00.582Z,2.20
2019-02-19T16:35:32.026Z,2.20
2019-02-19T16:38:05.225Z,2.33
2019-02-19T16:40:53.225Z,2.97
2019-02-19T16:43:29.415Z,2.50
2019-02-19T16:46:06.969Z,2.87
2019-02-19T16:48:46.571Z,3.13
2019-02-19T16:51:24.173Z,3.10
2019-02-19T16:53:54.845Z,3.50
2019-02-19T16:56:38.007Z,3.70
2019-02-19T16:59:09.109Z,3.17
2019-02-19T17:01:55.571Z,3.50
2019-02-19T17:04:39.466Z,3.73
2019-02-19T17:07:10.755Z,4.50
2019-02-19T17:09:43.780Z,9.80
2019-02-19T17:12:14.478Z,9.93
2019-02-19T17:15:00.307Z,5.40
2019-02-19T17:17:50.673Z,5.30
2019-02-19T17:20:29.204Z,4.00
2019-02-19T17:23:11.365Z,4.13
2019-02-19T17:25:42.722Z,4.50
2019-02-19T17:28:25.221Z,4.53
2019-02-19T17:31:06.215Z,4.60
2019-02-19T17:33:39.967Z,4.00
2019-02-19T17:36:11.846Z,5.00
2019-02-19T17:38:51.566Z,4.83
2019-02-19T17:41:31.198Z,5.23
2019-02-19T17:44:02.074Z,5.30
2019-02-19T17:46:36.987Z,4.70
2019-02-19T17:49:19.636Z,5.10
2019-02-19T17:51:54.377Z,4.47
2019-02-19T17:54:27.812Z,5.07
2019-02-19T17:57:09.946Z,4.20
2019-02-19T17:59:40.749Z,4.23
2019-02-19T18:02:28.018Z,4.53
2019-02-19T18:05:05.259Z,5.23
2019-02-19T18:07:39.947Z,4.63
2019-02-19T18:10:27.048Z,5.13
2019-02-19T18:13:04.326Z,4.80
2019-02-19T18:15:51.668Z,4.90
2019-02-19T18:18:29.217Z,4.50
2019-02-19T18:20:59.527Z,5.00
2019-02-19T18:23:29.701Z,4.70
2019-02-19T18:25:58.873Z,4.73
2019-02-19T18:28:28.088Z,5.43
2019-02-19T18:30:57.391Z,5.10
2019-02-19T18:33:26.944Z,4.57
2019-02-19T18:35:57.237Z,4.83
2019-02-19T18:38:27.047Z,4.73
2019-02-19T18:40:57.408Z,4.83
2019-02-19T18:43:27.341Z,4.47
2019-02-19T18:45:56.664Z,5.00
2019-02-19T18:48:25.948Z,4.40
2019-02-19T18:50:58.551Z,4.60
2019-02-19T18:53:26.741Z,4.47
2019-02-19T18:55:58.499Z,4.43
2019-02-19T18:58:28.069Z,4.23
2019-02-19T19:00:57.387Z,5.33
2019-02-19T19:03:26.942Z,5.80
2019-02-19T19:05:56.825Z,5.47
2019-02-19T19:08:26.480Z,6.07
2019-02-19T19:10:56.628Z,6.03
2019-02-19T19:13:27.669Z,5.43
2019-02-19T19:15:58.625Z,5.63
2019-02-19T19:18:27.963Z,4.93
2019-02-19T19:20:57.629Z,5.20
2019-02-19T19:23:28.752Z,5.13
2019-02-19T19:25:58.470Z,5.17
2019-02-19T19:28:30.172Z,5.57
2019-02-19T19:31:00.653Z,5.17
2019-02-19T19:33:30.083Z,5.37
2019-02-19T19:35:59.338Z,5.23
2019-02-19T19:38:29.526Z,6.03
2019-02-19T19:40:58.965Z,6.67
2019-02-19T19:43:29.019Z,6.60
2019-02-19T19:46:00.335Z,6.70
2019-02-19T19:48:30.298Z,5.50
2019-02-19T19:51:00.041Z,6.37
2019-02-19T19:53:29.525Z,6.07
2019-02-19T19:55:59.684Z,6.07
2019-02-19T19:58:28.880Z,6.10
2019-02-19T20:00:58.399Z,6.37
2019-02-19T20:03:28.338Z,6.63
2019-02-19T20:05:59.662Z,6.17
2019-02-19T20:08:29.799Z,6.20
2019-02-19T20:10:59.176Z,6.67
2019-02-19T20:13:28.400Z,6.90
2019-02-19T20:15:57.983Z,8.63
2019-02-19T20:18:28.082Z,8.17
2019-02-19T20:20:57.863Z,9.10
2019-02-19T20:23:28.763Z,8.20
2019-02-19T20:25:58.829Z,8.07
2019-02-19T20:28:28.956Z,7.97
2019-02-19T20:30:59.094Z,7.60
2019-02-19T20:33:29.111Z,7.60
2019-02-19T20:35:58.414Z,8.73
2019-02-19T20:38:27.596Z,8.77
2019-02-19T20:40:58.037Z,7.80
2019-02-19T20:43:27.228Z,8.07
2019-02-19T20:45:56.581Z,7.50
2019-02-19T20:48:26.708Z,8.38
2019-02-19T20:50:56.744Z,8.57
2019-02-19T20:53:26.893Z,7.50
2019-02-19T20:55:56.460Z,7.23
2019-02-19T20:58:26.138Z,9.07
2019-02-19T21:00:57.310Z,8.70
2019-02-19T21:03:26.659Z,8.73
2019-02-19T21:05:56.279Z,9.45
2019-02-19T21:08:25.571Z,9.13
2019-02-19T21:10:55.419Z,9.10
2019-02-19T21:13:25.087Z,9.00
2019-02-19T21:15:55.317Z,9.47
2019-02-19T21:18:24.916Z,8.83
2019-02-19T21:20:54.812Z,8.90
2019-02-19T21:23:24.142Z,10.17
2019-02-19T21:25:53.310Z,8.93
2019-02-19T21:28:24.170Z,9.33
2019-02-19T21:30:54.330Z,9.63
2019-02-19T21:33:23.699Z,10.07
2019-02-19T21:35:57.623Z,9.63
2019-02-19T21:38:25.960Z,10.10
2019-02-19T21:40:55.306Z,9.87
2019-02-19T21:43:24.874Z,9.83
2019-02-19T21:45:54.282Z,8.57
2019-02-19T21:48:24.343Z,8.30
2019-02-19T21:50:53.885Z,8.87
2019-02-19T21:53:23.255Z,8.43
2019-02-19T21:55:54.760Z,8.80
2019-02-19T21:58:24.289Z,8.57
2019-02-19T22:00:54.535Z,8.87
2019-02-19T22:03:23.945Z,9.20
2019-02-19T22:05:53.433Z,8.97
2019-02-19T22:08:23.622Z,8.83
2019-02-19T22:10:53.936Z,8.17
2019-02-19T22:13:24.765Z,8.67
2019-02-19T22:15:54.462Z,9.50
2019-02-19T22:18:24.260Z,9.40
2019-02-19T22:21:00.708Z,8.73
2019-02-19T22:23:30.071Z,8.83
2019-02-19T22:25:59.780Z,8.27
2019-02-19T22:28:29.882Z,8.27
2019-02-19T22:30:59.172Z,7.93
2019-02-19T22:33:28.481Z,8.17
2019-02-19T22:35:57.903Z,8.63
2019-02-19T22:38:27.241Z,8.77
2019-02-19T22:40:56.443Z,9.17
2019-02-19T22:43:26.104Z,8.73
2019-02-19T22:45:56.747Z,9.17
2019-02-19T22:48:26.860Z,7.73
2019-02-19T22:50:56.221Z,7.97
2019-02-19T22:53:43.173Z,8.57
2019-02-19T22:56:13.893Z,10.23
2019-02-19T22:58:44.016Z,9.47
2019-02-19T23:01:20.657Z,9.63
2019-02-19T23:03:50.879Z,8.53
